createdAt,value
2022-12-15T00:01:20.211Z,56.97
2022-12-15T00:04:05.337Z,56.95
2022-12-15T00:06:50.148Z,57.34
2022-12-15T00:09:34.908Z,57.19
2022-12-15T00:12:19.937Z,56.56
2022-12-15T00:15:04.741Z,57.04
2022-12-15T00:17:49.602Z,57.26
2022-12-15T00:20:34.205Z,57.09
2022-12-15T00:23:25.616Z,57.02
2022-12-15T00:26:10.400Z,57.75
2022-12-15T00:28:54.947Z,57.21
2022-12-15T00:31:39.878Z,56.76
2022-12-15T00:34:24.669Z,56.23
2022-12-15T00:37:09.640Z,55.79
2022-12-15T00:39:35.943Z,56.23
2022-12-15T00:42:02.247Z,57.65
2022-12-15T00:44:28.561Z,58.99
2022-12-15T00:46:54.913Z,58.45
2022-12-15T00:49:48.638Z,58.25
2022-12-15T00:52:33.869Z,57.15
2022-12-15T00:55:18.587Z,56.41
2022-12-15T00:58:03.227Z,55.80
2022-12-15T01:00:48.141Z,56.08
2022-12-15T01:03:34.221Z,56.88
2022-12-15T01:06:19.289Z,56.75
2022-12-15T01:09:04.002Z,56.44
2022-12-15T01:11:48.747Z,56.55
2022-12-15T01:14:33.530Z,56.56
2022-12-15T01:17:18.209Z,56.10
2022-12-15T01:20:03.053Z,55.20
2022-12-15T01:22:29.657Z,55.06
2022-12-15T01:24:55.945Z,55.24
2022-12-15T01:27:22.210Z,55.08
2022-12-15T01:29:48.502Z,54.42
2022-12-15T01:32:14.806Z,54.39
2022-12-15T01:34:41.136Z,54.38
2022-12-15T01:37:07.424Z,53.92
2022-12-15T01:39:52.358Z,54.29
2022-12-15T01:42:18.653Z,54.26
2022-12-15T01:44:46.096Z,53.49
2022-12-15T01:47:12.491Z,53.78
2022-12-15T01:49:38.809Z,52.81
2022-12-15T01:52:05.648Z,52.87
2022-12-15T01:54:36.667Z,52.78
2022-12-15T01:57:04.065Z,53.08
2022-12-15T01:59:34.345Z,52.75
2022-12-15T02:02:00.747Z,53.55
2022-12-15T02:04:27.075Z,53.30
2022-12-15T02:06:53.409Z,53.04
2022-12-15T02:09:19.729Z,52.19
2022-12-15T02:11:56.141Z,53.16
2022-12-15T02:14:41.279Z,53.06
2022-12-15T02:17:07.556Z,52.88
2022-12-15T02:19:43.589Z,52.69
2022-12-15T02:22:15.877Z,53.65
2022-12-15T02:24:49.757Z,52.92
2022-12-15T02:27:34.790Z,52.15
2022-12-15T02:30:30.616Z,51.91
2022-12-15T02:33:29.652Z,52.22
2022-12-15T02:35:57.314Z,52.42
2022-12-15T02:38:34.422Z,52.17
2022-12-15T02:41:01.017Z,52.69
2022-12-15T02:43:27.906Z,52.26
2022-12-15T02:46:13.482Z,51.89
2022-12-15T02:48:52.503Z,52.76
2022-12-15T02:51:24.092Z,52.02
2022-12-15T02:53:50.302Z,51.91
2022-12-15T02:56:35.395Z,51.71
2022-12-15T02:59:03.635Z,51.73
2022-12-15T03:01:37.383Z,51.82
2022-12-15T03:04:04.482Z,51.79
2022-12-15T03:06:30.742Z,51.95
2022-12-15T03:08:57.050Z,51.38
2022-12-15T03:11:23.311Z,51.38
2022-12-15T03:13:50.424Z,51.81
2022-12-15T03:16:16.779Z,51.79
2022-12-15T03:18:43.101Z,52.04
2022-12-15T03:21:09.398Z,52.41
2022-12-15T03:23:35.656Z,52.69
2022-12-15T03:26:01.960Z,52.54
2022-12-15T03:28:28.705Z,53.01
2022-12-15T03:30:56.307Z,52.27
2022-12-15T03:33:22.581Z,51.58
2022-12-15T03:35:49.714Z,51.88
2022-12-15T03:38:15.993Z,51.28
2022-12-15T03:40:42.324Z,51.14
2022-12-15T03:43:08.608Z,52.15
2022-12-15T03:45:34.969Z,53.16
2022-12-15T03:48:01.568Z,52.92
2022-12-15T03:50:28.153Z,52.88
2022-12-15T03:53:03.655Z,52.38
2022-12-15T03:55:30.018Z,53.41
2022-12-15T03:57:56.489Z,52.65
2022-12-15T04:00:22.874Z,52.48
2022-12-15T04:02:50.374Z,52.14
2022-12-15T04:05:20.748Z,52.42
2022-12-15T04:07:47.059Z,52.54
2022-12-15T04:10:13.335Z,52.78
2022-12-15T04:12:39.736Z,53.00
2022-12-15T04:15:06.813Z,52.15
2022-12-15T04:17:33.100Z,52.20
2022-12-15T04:20:11.323Z,51.60
2022-12-15T04:22:37.655Z,51.88
2022-12-15T04:25:23.098Z,51.78
2022-12-15T04:28:07.843Z,51.21
2022-12-15T04:30:52.631Z,51.44
2022-12-15T04:33:38.324Z,51.45
2022-12-15T04:36:23.862Z,52.02
2022-12-15T04:39:08.597Z,52.42
2022-12-15T04:41:53.243Z,51.49
2022-12-15T04:44:38.001Z,51.70
2022-12-15T04:47:23.073Z,52.19
2022-12-15T04:50:07.828Z,51.99
2022-12-15T04:52:52.609Z,51.49
2022-12-15T04:55:37.346Z,51.41
2022-12-15T04:58:25.687Z,51.51
2022-12-15T05:01:10.807Z,51.97
2022-12-15T05:03:55.581Z,51.11
2022-12-15T05:06:40.284Z,50.71
2022-12-15T05:09:25.085Z,51.10
2022-12-15T05:12:09.909Z,50.64
2022-12-15T05:14:54.736Z,51.27
2022-12-15T05:17:41.602Z,50.85
2022-12-15T05:20:27.265Z,50.86
2022-12-15T05:23:12.992Z,50.05
2022-12-15T05:25:57.908Z,50.41
2022-12-15T05:28:42.704Z,50.72
2022-12-15T05:31:27.582Z,50.58
2022-12-15T05:33:57.194Z,50.90
2022-12-15T05:36:27.348Z,50.36
2022-12-15T05:38:53.613Z,50.53
2022-12-15T05:41:20.105Z,49.87
2022-12-15T05:43:46.457Z,50.35
2022-12-15T05:46:12.893Z,50.43
2022-12-15T05:48:39.219Z,51.16
2022-12-15T05:51:05.901Z,50.65
2022-12-15T05:53:32.667Z,50.71
2022-12-15T05:56:02.845Z,50.08
2022-12-15T05:58:29.122Z,50.33
2022-12-15T06:00:55.456Z,50.09
2022-12-15T06:03:21.726Z,49.78
2022-12-15T06:05:53.075Z,49.76
2022-12-15T06:08:23.820Z,50.03
2022-12-15T06:10:54.409Z,49.84
2022-12-15T06:13:21.274Z,50.22
2022-12-15T06:15:57.899Z,50.34
2022-12-15T06:18:24.561Z,50.26
2022-12-15T06:20:56.434Z,50.18
2022-12-15T06:23:22.993Z,49.74
2022-12-15T06:25:49.266Z,49.76
2022-12-15T06:28:16.731Z,49.88
2022-12-15T06:30:43.013Z,50.06
2022-12-15T06:33:09.291Z,50.34
2022-12-15T06:35:36.205Z,49.75
2022-12-15T06:38:02.542Z,49.55
2022-12-15T06:40:31.015Z,49.95
2022-12-15T06:42:59.678Z,50.66
2022-12-15T06:45:25.959Z,50.29
2022-12-15T06:47:55.341Z,49.69
2022-12-15T06:50:25.847Z,50.82
2022-12-15T06:52:52.127Z,50.57
2022-12-15T06:55:18.417Z,50.09
2022-12-15T06:57:47.043Z,50.37
2022-12-15T07:00:13.577Z,50.07
2022-12-15T07:02:41.565Z,50.23
2022-12-15T07:05:09.192Z,49.78
2022-12-15T07:07:35.463Z,49.64
2022-12-15T07:10:01.747Z,50.42
2022-12-15T07:12:28.014Z,49.63
2022-12-15T07:14:54.274Z,50.10
2022-12-15T07:17:20.553Z,49.68
2022-12-15T07:19:46.848Z,49.25
2022-12-15T07:22:13.238Z,48.87
2022-12-15T07:24:39.514Z,49.50
2022-12-15T07:27:05.790Z,50.75
2022-12-15T07:29:32.144Z,49.42
2022-12-15T07:32:00.703Z,49.38
2022-12-15T07:34:27.066Z,49.80
2022-12-15T07:36:53.349Z,49.95
2022-12-15T07:39:19.636Z,49.62
2022-12-15T07:41:46.673Z,50.29
2022-12-15T07:44:14.624Z,50.00
2022-12-15T07:46:41.023Z,49.98
2022-12-15T07:49:07.321Z,48.80
2022-12-15T07:51:33.608Z,49.71
2022-12-15T07:53:59.972Z,49.25
2022-12-15T07:56:26.333Z,49.78
2022-12-15T07:58:53.009Z,49.05
2022-12-15T08:01:19.408Z,49.43
2022-12-15T08:03:45.885Z,49.82
2022-12-15T08:06:12.969Z,50.41
2022-12-15T08:08:39.375Z,50.45
2022-12-15T08:11:08.045Z,50.38
2022-12-15T08:16:20.918Z,50.13
2022-12-15T08:18:47.208Z,49.92
2022-12-15T08:21:14.466Z,49.13
2022-12-15T08:23:40.751Z,49.33
2022-12-15T08:26:13.832Z,48.89
2022-12-15T08:28:40.295Z,49.29
2022-12-15T08:31:07.587Z,49.07
2022-12-15T08:33:34.399Z,48.80
2022-12-15T08:36:02.638Z,48.41
2022-12-15T08:38:29.332Z,48.02
2022-12-15T08:40:55.612Z,48.68
2022-12-15T08:43:21.884Z,48.87
2022-12-15T08:45:48.201Z,48.69
2022-12-15T08:48:16.638Z,50.16
2022-12-15T08:50:44.080Z,49.58
2022-12-15T08:53:32.798Z,49.81
2022-12-15T08:56:01.628Z,49.76
2022-12-15T08:58:27.940Z,49.39
2022-12-15T09:00:59.273Z,49.76
2022-12-15T09:03:25.565Z,49.21
2022-12-15T09:05:51.844Z,49.08
2022-12-15T09:08:18.123Z,47.62
2022-12-15T09:10:44.405Z,48.85
2022-12-15T09:13:10.660Z,48.80
2022-12-15T09:16:07.675Z,49.28
2022-12-15T09:18:23.308Z,48.88
2022-12-15T09:20:49.610Z,49.12
2022-12-15T09:23:15.889Z,50.08
2022-12-15T09:25:42.526Z,49.80
2022-12-15T09:28:08.810Z,49.94
2022-12-15T09:30:35.143Z,50.15
2022-12-15T09:33:01.471Z,49.79
2022-12-15T09:35:27.791Z,49.63
2022-12-15T09:37:54.051Z,48.90
2022-12-15T09:40:20.320Z,47.82
2022-12-15T09:42:59.786Z,47.31
2022-12-15T09:45:37.379Z,47.21
2022-12-15T09:48:05.106Z,46.33
2022-12-15T09:50:33.916Z,46.82
2022-12-15T09:53:00.257Z,46.29
2022-12-15T09:55:27.452Z,46.74
2022-12-15T10:00:55.632Z,47.29
2022-12-15T10:03:35.103Z,48.85
2022-12-15T10:06:18.961Z,49.12
2022-12-15T10:08:53.709Z,48.80
2022-12-15T10:11:21.577Z,47.87
2022-12-15T10:13:48.064Z,47.15
2022-12-15T10:16:24.201Z,46.96
2022-12-15T10:18:59.434Z,46.30
2022-12-15T10:21:28.036Z,47.08
2022-12-15T10:23:55.124Z,46.59
2022-12-15T10:26:23.257Z,46.49
2022-12-15T10:28:59.173Z,47.35
2022-12-15T10:31:54.816Z,46.91
2022-12-15T10:34:30.079Z,47.42
2022-12-15T10:36:56.532Z,47.05
2022-12-15T10:39:23.307Z,46.92
2022-12-15T10:42:08.443Z,46.75
2022-12-15T10:44:38.143Z,46.90
2022-12-15T10:47:11.573Z,46.72
2022-12-15T10:49:38.055Z,47.10
2022-12-15T10:52:04.427Z,47.77
2022-12-15T10:54:36.781Z,47.88
2022-12-15T10:57:14.477Z,48.04
2022-12-15T10:59:40.794Z,48.39
2022-12-15T11:02:27.706Z,47.69
2022-12-15T11:04:54.690Z,47.55
2022-12-15T11:07:21.324Z,47.24
2022-12-15T11:09:47.613Z,48.00
2022-12-15T11:12:36.092Z,45.86
2022-12-15T11:15:02.642Z,47.45
2022-12-15T11:17:36.412Z,47.10
2022-12-15T11:20:03.886Z,46.92
2022-12-15T11:22:39.841Z,47.09
2022-12-15T11:25:12.114Z,48.26
2022-12-15T11:27:38.881Z,48.31
2022-12-15T11:30:15.313Z,48.54
2022-12-15T11:32:42.706Z,48.21
2022-12-15T11:35:15.853Z,47.17
2022-12-15T11:37:42.949Z,48.35
2022-12-15T11:40:28.024Z,48.27
2022-12-15T11:42:54.307Z,46.76
2022-12-15T11:45:35.504Z,47.00
2022-12-15T11:48:04.767Z,47.61
2022-12-15T11:50:41.205Z,46.83
2022-12-15T11:53:10.057Z,47.37
2022-12-15T11:55:41.436Z,48.20
2022-12-15T11:58:10.858Z,48.47
2022-12-15T12:00:42.233Z,47.11
2022-12-15T12:03:14.770Z,46.11
2022-12-15T12:05:44.019Z,45.87
2022-12-15T12:08:32.603Z,47.36
2022-12-15T12:11:02.205Z,48.43
2022-12-15T12:13:30.257Z,49.13
2022-12-15T12:15:59.931Z,48.98
2022-12-15T12:18:27.433Z,49.57
2022-12-15T12:20:58.884Z,49.89
2022-12-15T12:23:31.604Z,49.26
2022-12-15T12:26:02.989Z,49.35
2022-12-15T12:28:33.384Z,48.68
2022-12-15T12:31:00.319Z,48.73
2022-12-15T12:33:29.616Z,48.86
2022-12-15T12:35:57.417Z,48.36
2022-12-15T12:38:26.933Z,48.21
2022-12-15T12:41:28.444Z,46.81
2022-12-15T12:43:58.243Z,46.50
2022-12-15T12:46:31.093Z,47.30
2022-12-15T12:49:05.061Z,46.67
2022-12-15T12:51:31.742Z,46.70
2022-12-15T12:53:58.255Z,47.61
2022-12-15T12:56:43.960Z,47.24
2022-12-15T12:59:29.889Z,47.74
2022-12-15T13:02:14.658Z,46.94
2022-12-15T13:04:41.854Z,47.09
2022-12-15T13:07:27.005Z,46.83
2022-12-15T13:10:02.494Z,45.97
2022-12-15T13:12:52.906Z,46.23
2022-12-15T13:15:29.618Z,45.74
2022-12-15T13:18:06.364Z,46.42
2022-12-15T13:20:33.122Z,46.63
2022-12-15T13:23:18.895Z,46.85
2022-12-15T13:26:05.481Z,45.96
2022-12-15T13:28:39.608Z,46.30
2022-12-15T13:31:21.424Z,46.86
2022-12-15T13:33:50.993Z,47.40
2022-12-15T13:36:36.003Z,48.13
2022-12-15T13:39:22.490Z,48.16
2022-12-15T13:42:31.540Z,48.17
2022-12-15T13:44:39.460Z,47.68
2022-12-15T13:47:06.865Z,47.26
2022-12-15T13:49:33.966Z,46.30
2022-12-15T13:52:00.816Z,47.12
2022-12-15T13:54:46.202Z,47.61
2022-12-15T13:57:14.026Z,47.40
2022-12-15T13:59:50.519Z,47.05
2022-12-15T14:02:23.313Z,47.19
2022-12-15T14:05:09.942Z,48.43
2022-12-15T14:07:36.222Z,47.97
2022-12-15T14:10:04.017Z,47.84
2022-12-15T14:12:30.269Z,47.13
2022-12-15T14:14:56.595Z,46.62
2022-12-15T14:17:22.873Z,46.41
2022-12-15T14:19:50.885Z,46.37
2022-12-15T14:25:13.760Z,46.25
2022-12-15T14:27:40.053Z,46.87
2022-12-15T14:30:15.823Z,47.44
2022-12-15T14:32:42.228Z,47.02
2022-12-15T14:35:17.921Z,46.96
2022-12-15T14:37:44.659Z,46.91
2022-12-15T14:40:15.769Z,46.36
2022-12-15T14:42:42.448Z,46.03
2022-12-15T14:45:17.185Z,46.06
2022-12-15T14:48:05.779Z,46.26
2022-12-15T14:50:33.748Z,46.22
2022-12-15T14:53:04.688Z,46.30
2022-12-15T14:55:31.085Z,45.20
2022-12-15T14:57:57.432Z,45.08
2022-12-15T15:00:28.297Z,44.63
2022-12-15T15:03:03.696Z,46.64
2022-12-15T15:03:14.309Z,45.93
2022-12-15T15:03:18.280Z,44.43
2022-12-15T15:05:46.545Z,45.31
2022-12-15T15:08:26.560Z,45.43
2022-12-15T15:10:56.386Z,44.94
2022-12-15T15:13:23.441Z,45.61
2022-12-15T15:15:53.130Z,46.29
2022-12-15T15:18:20.279Z,47.52
2022-12-15T15:20:49.529Z,48.06
2022-12-15T15:23:16.791Z,48.23
2022-12-15T15:25:49.188Z,47.97
2022-12-15T15:28:18.439Z,48.45
2022-12-15T15:30:48.912Z,49.16
2022-12-15T15:33:15.336Z,49.17
2022-12-15T15:35:41.836Z,50.08
2022-12-15T15:38:14.205Z,50.58
2022-12-15T15:40:40.480Z,50.38
2022-12-15T15:43:12.744Z,50.30
2022-12-15T15:45:40.117Z,50.04
2022-12-15T15:48:06.404Z,50.20
2022-12-15T15:50:32.872Z,50.57
2022-12-15T15:52:59.262Z,50.47
2022-12-15T15:55:26.941Z,50.89
2022-12-15T15:57:53.357Z,50.80
2022-12-15T16:00:21.331Z,51.12
2022-12-15T16:02:47.872Z,50.93
2022-12-15T16:05:14.485Z,50.91
2022-12-15T16:07:40.860Z,51.45
2022-12-15T16:10:14.126Z,51.55
2022-12-15T16:12:42.310Z,51.38
2022-12-15T16:15:14.701Z,51.06
2022-12-15T16:17:41.419Z,51.39
2022-12-15T16:20:08.385Z,51.73
2022-12-15T16:22:34.861Z,51.47
2022-12-15T16:25:01.179Z,51.47
2022-12-15T16:27:27.458Z,51.40
2022-12-15T16:29:53.730Z,51.72
2022-12-15T16:32:20.053Z,51.73
2022-12-15T16:34:46.650Z,52.03
2022-12-15T16:37:26.202Z,52.28
2022-12-15T16:39:52.859Z,53.23
2022-12-15T16:42:19.140Z,53.62
2022-12-15T16:44:45.416Z,52.90
2022-12-15T16:47:11.739Z,52.49
2022-12-15T16:49:40.333Z,52.24
2022-12-15T16:52:08.113Z,52.82
2022-12-15T16:54:34.367Z,53.28
2022-12-15T16:57:00.641Z,52.94
2022-12-15T16:59:35.262Z,53.08
2022-12-15T17:02:02.310Z,53.18
2022-12-15T17:04:28.709Z,52.00
2022-12-15T17:06:54.977Z,51.17
2022-12-15T17:09:22.097Z,51.75
2022-12-15T17:11:48.380Z,51.47
2022-12-15T17:14:15.686Z,51.36
2022-12-15T17:16:41.973Z,50.78
2022-12-15T17:19:08.613Z,51.15
2022-12-15T17:21:35.459Z,50.73
2022-12-15T17:24:06.256Z,50.65
2022-12-15T17:26:33.308Z,51.03
2022-12-15T17:29:00.839Z,50.59
2022-12-15T17:31:33.239Z,50.79
2022-12-15T17:34:02.451Z,50.98
2022-12-15T17:36:28.758Z,50.92
2022-12-15T17:38:55.690Z,51.54
2022-12-15T17:41:50.369Z,51.17
2022-12-15T17:44:33.728Z,51.05
2022-12-15T17:47:02.016Z,50.90
2022-12-15T17:49:34.737Z,50.94
2022-12-15T17:52:02.256Z,50.53
2022-12-15T17:54:29.611Z,51.03
2022-12-15T17:56:55.888Z,50.75
2022-12-15T17:59:22.366Z,50.61
2022-12-15T18:01:49.038Z,50.90
2022-12-15T18:04:15.633Z,50.82
2022-12-15T18:06:42.145Z,50.78
2022-12-15T18:09:17.792Z,51.14
2022-12-15T18:11:46.471Z,51.21
2022-12-15T18:14:14.140Z,51.20
2022-12-15T18:16:40.751Z,51.04
2022-12-15T18:19:07.142Z,50.75
2022-12-15T18:21:33.423Z,50.68
2022-12-15T18:23:59.698Z,50.55
2022-12-15T18:26:25.956Z,50.44
2022-12-15T18:28:52.250Z,49.71
2022-12-15T18:31:27.715Z,50.17
2022-12-15T18:34:00.989Z,49.93
2022-12-15T18:36:30.494Z,50.12
2022-12-15T18:38:56.776Z,50.88
2022-12-15T18:41:23.038Z,51.39
2022-12-15T18:43:49.328Z,51.44
2022-12-15T18:46:15.869Z,51.53
2022-12-15T18:48:42.424Z,51.81
2022-12-15T18:51:15.298Z,51.90
2022-12-15T18:53:41.597Z,51.80
2022-12-15T18:56:08.731Z,50.97
2022-12-15T18:58:35.676Z,50.85
2022-12-15T19:01:02.227Z,50.54
2022-12-15T19:03:28.665Z,50.59
2022-12-15T19:05:58.098Z,50.37
2022-12-15T19:08:27.386Z,50.20
2022-12-15T19:10:53.676Z,50.66
2022-12-15T19:13:20.819Z,50.44
2022-12-15T19:15:47.153Z,50.14
2022-12-15T19:18:35.652Z,50.04
2022-12-15T19:21:48.001Z,50.34
2022-12-15T19:24:18.226Z,50.12
2022-12-15T19:26:44.501Z,49.94
2022-12-15T19:29:17.670Z,49.67
2022-12-15T19:31:44.175Z,49.95
2022-12-15T19:34:10.853Z,50.20
2022-12-15T19:36:37.167Z,50.36
2022-12-15T19:39:03.469Z,50.37
2022-12-15T19:41:30.570Z,50.88
2022-12-15T19:43:56.854Z,50.82
2022-12-15T19:46:23.758Z,50.88
2022-12-15T19:48:50.205Z,50.95
2022-12-15T19:51:17.207Z,50.51
2022-12-15T19:53:44.183Z,50.88
2022-12-15T19:56:11.455Z,51.05
2022-12-15T19:58:38.620Z,50.71
2022-12-15T20:01:05.938Z,50.67
2022-12-15T20:03:32.950Z,51.05
2022-12-15T20:05:59.915Z,51.26
2022-12-15T20:08:29.989Z,51.19
2022-12-15T20:10:56.315Z,51.49
2022-12-15T20:13:22.660Z,51.43
2022-12-15T20:15:48.975Z,51.32
2022-12-15T20:18:15.357Z,50.72
2022-12-15T20:20:41.728Z,50.92
2022-12-15T20:23:12.519Z,50.46
2022-12-15T20:25:38.798Z,51.01
2022-12-15T20:28:05.107Z,50.77
2022-12-15T20:30:35.320Z,50.26
2022-12-15T20:33:04.364Z,50.39
2022-12-15T20:35:32.904Z,51.00
2022-12-15T20:37:59.305Z,51.02
2022-12-15T20:40:26.572Z,51.18
2022-12-15T20:42:52.924Z,51.66
2022-12-15T20:45:19.972Z,51.28
2022-12-15T20:47:46.488Z,51.41
2022-12-15T20:50:26.883Z,51.22
2022-12-15T20:52:53.221Z,51.09
2022-12-15T20:55:21.443Z,51.23
2022-12-15T20:57:47.959Z,50.82
2022-12-15T21:00:14.448Z,50.72
2022-12-15T21:02:40.868Z,51.86
2022-12-15T21:05:08.272Z,52.60
2022-12-15T21:07:34.564Z,51.94
2022-12-15T21:10:00.893Z,52.19
2022-12-15T21:12:27.450Z,52.78
2022-12-15T21:14:54.150Z,52.10
2022-12-15T21:17:21.058Z,51.70
2022-12-15T21:19:47.395Z,51.78
2022-12-15T21:22:23.248Z,52.50
2022-12-15T21:24:49.873Z,52.70
2022-12-15T21:27:16.750Z,53.25
2022-12-15T21:29:46.102Z,52.66
2022-12-15T21:32:16.863Z,52.58
2022-12-15T21:34:43.141Z,52.82
2022-12-15T21:37:17.487Z,52.93
2022-12-15T21:39:43.760Z,53.78
2022-12-15T21:42:14.071Z,54.54
2022-12-15T21:44:41.474Z,54.99
2022-12-15T21:47:47.202Z,54.96
2022-12-15T21:50:13.961Z,55.13
2022-12-15T21:52:40.218Z,55.66
2022-12-15T21:55:13.954Z,55.59
2022-12-15T21:57:40.315Z,55.08
2022-12-15T22:00:13.359Z,54.17
2022-12-15T22:02:39.733Z,54.37
2022-12-15T22:05:19.667Z,54.03
2022-12-15T22:07:45.990Z,55.07
2022-12-15T22:10:12.258Z,54.99
2022-12-15T22:12:38.533Z,54.91
2022-12-15T22:15:12.103Z,56.19
2022-12-15T22:17:38.356Z,57.40
2022-12-15T22:20:30.801Z,57.25
2022-12-15T22:22:57.296Z,56.72
2022-12-15T22:25:24.190Z,57.43
2022-12-15T22:27:50.476Z,57.06
2022-12-15T22:30:19.401Z,56.84
2022-12-15T22:32:45.708Z,56.39
2022-12-15T22:35:18.990Z,56.87
2022-12-15T22:37:45.468Z,56.56
2022-12-15T22:40:12.107Z,56.31
2022-12-15T22:42:38.876Z,56.66
2022-12-15T22:45:05.828Z,56.14
2022-12-15T22:47:32.248Z,55.61
2022-12-15T22:49:58.525Z,55.42
2022-12-15T22:52:24.789Z,55.26
2022-12-15T22:54:52.874Z,55.19
2022-12-15T22:57:25.867Z,55.29
2022-12-15T22:59:53.785Z,55.30
2022-12-15T23:02:20.942Z,55.07
2022-12-15T23:04:47.237Z,54.81
2022-12-15T23:07:13.699Z,54.93
2022-12-15T23:09:39.980Z,54.45
2022-12-15T23:12:06.284Z,54.45
2022-12-15T23:14:51.139Z,54.36
2022-12-15T23:17:17.905Z,54.90
2022-12-15T23:19:44.576Z,55.00
2022-12-15T23:22:10.844Z,54.22
2022-12-15T23:24:37.118Z,54.09
2022-12-15T23:27:03.395Z,53.72
2022-12-15T23:29:29.722Z,53.47
2022-12-15T23:31:55.997Z,53.43
2022-12-15T23:34:22.468Z,53.61
2022-12-15T23:36:48.790Z,54.02
2022-12-15T23:39:15.096Z,53.78
2022-12-15T23:41:41.552Z,53.97
2022-12-15T23:44:07.827Z,54.98
2022-12-15T23:46:34.618Z,56.22
2022-12-15T23:49:01.113Z,55.74
2022-12-15T23:51:27.401Z,55.88
2022-12-15T23:53:53.714Z,55.56
2022-12-15T23:56:22.480Z,55.76
2022-12-15T23:58:53.521Z,56.63
